createdAt,value
2018-10-16T00:04:28.183Z,15.70
2018-10-16T00:09:31.398Z,13.47
2018-10-16T00:14:34.496Z,19.97
2018-10-16T00:19:37.697Z,14.80
2018-10-16T00:24:40.846Z,14.33
2018-10-16T00:29:44.052Z,15.30
2018-10-16T00:34:47.236Z,14.13
2018-10-16T00:39:50.374Z,11.60
2018-10-16T00:44:53.513Z,13.83
2018-10-16T00:49:56.704Z,15.20
2018-10-16T00:54:59.904Z,15.00
2018-10-16T01:00:02.974Z,18.27
2018-10-16T01:05:07.195Z,13.60
2018-10-16T01:10:11.146Z,14.13
2018-10-16T01:15:14.385Z,16.27
2018-10-16T01:20:17.509Z,15.90
2018-10-16T01:25:20.723Z,16.90
2018-10-16T01:30:23.854Z,12.30
2018-10-16T01:35:27.062Z,13.67
2018-10-16T01:40:30.268Z,15.50
2018-10-16T01:45:33.504Z,12.73
2018-10-16T01:50:36.693Z,14.93
2018-10-16T01:55:39.850Z,15.67
2018-10-16T02:00:42.991Z,17.90
2018-10-16T02:05:46.158Z,15.43
2018-10-16T02:10:49.370Z,15.33
2018-10-16T02:15:52.497Z,13.53
2018-10-16T02:20:55.650Z,13.07
2018-10-16T02:25:58.793Z,16.80
2018-10-16T02:31:01.931Z,19.83
2018-10-16T02:36:05.196Z,17.87
2018-10-16T02:41:08.372Z,14.27
2018-10-16T02:46:11.569Z,16.40
2018-10-16T02:51:14.712Z,15.60
2018-10-16T02:56:17.863Z,15.13
2018-10-16T03:01:21.023Z,16.00
2018-10-16T03:06:24.235Z,16.50
2018-10-16T03:11:27.406Z,18.60
2018-10-16T03:16:30.590Z,14.60
2018-10-16T03:21:33.793Z,16.23
2018-10-16T03:26:37.246Z,17.27
2018-10-16T03:31:40.676Z,15.57
2018-10-16T03:36:43.841Z,23.00
2018-10-16T03:41:46.981Z,20.00
2018-10-16T03:46:50.149Z,21.13
2018-10-16T03:51:53.357Z,14.00
2018-10-16T03:56:56.619Z,17.47
2018-10-16T04:01:59.812Z,18.10
2018-10-16T04:07:03.032Z,16.50
2018-10-16T04:12:06.508Z,18.20
2018-10-16T04:17:09.735Z,19.33
2018-10-16T04:22:12.873Z,18.75
2018-10-16T04:27:16.000Z,18.17
2018-10-16T04:32:19.165Z,17.42
2018-10-16T04:37:22.405Z,17.40
2018-10-16T04:42:25.566Z,16.80
2018-10-16T04:47:28.769Z,17.23
2018-10-16T04:52:31.978Z,20.17
2018-10-16T04:57:35.248Z,19.75
2018-10-16T05:02:39.857Z,17.70
2018-10-16T05:07:42.999Z,20.70
2018-10-16T05:12:46.173Z,23.27
2018-10-16T05:17:49.345Z,18.53
2018-10-16T05:22:52.830Z,17.13
2018-10-16T05:27:56.437Z,18.33
2018-10-16T05:32:59.620Z,22.37
2018-10-16T05:38:02.817Z,22.93
2018-10-16T05:43:06.521Z,21.20
2018-10-16T05:48:09.689Z,20.87
2018-10-16T05:53:12.798Z,25.53
2018-10-16T05:58:15.965Z,20.47
2018-10-16T06:03:19.128Z,20.55
2018-10-16T06:08:22.347Z,17.90
2018-10-16T06:13:25.547Z,23.20
2018-10-16T06:18:28.697Z,24.07
2018-10-16T06:23:31.850Z,26.90
2018-10-16T06:28:34.974Z,28.63
2018-10-16T06:33:38.133Z,29.93
2018-10-16T06:38:41.310Z,25.97
2018-10-16T06:43:44.381Z,22.10
2018-10-16T06:48:47.798Z,21.87
2018-10-16T06:53:50.628Z,19.47
2018-10-16T06:58:53.742Z,23.13
2018-10-16T07:03:56.911Z,33.13
2018-10-16T07:09:00.070Z,28.13
2018-10-16T07:14:03.290Z,19.57
2018-10-16T07:19:06.904Z,24.47
2018-10-16T07:24:10.202Z,25.00
2018-10-16T07:29:13.385Z,19.25
2018-10-16T07:34:16.689Z,17.50
2018-10-16T07:39:19.846Z,27.97
2018-10-16T07:44:22.984Z,20.07
2018-10-16T07:49:26.159Z,20.70
2018-10-16T07:54:29.351Z,24.70
2018-10-16T07:59:32.564Z,23.57
2018-10-16T08:04:35.674Z,22.27
2018-10-16T08:09:38.834Z,18.90
2018-10-16T08:14:41.999Z,22.07
2018-10-16T08:19:45.133Z,23.90
2018-10-16T08:24:48.233Z,26.30
2018-10-16T08:29:51.475Z,24.23
2018-10-16T08:34:54.794Z,22.00
2018-10-16T08:39:59.281Z,20.80
2018-10-16T08:45:29.332Z,24.73
2018-10-16T08:51:09.158Z,23.87
2018-10-16T08:56:12.242Z,29.10
2018-10-16T09:01:15.418Z,20.90
2018-10-16T09:06:18.620Z,28.83
2018-10-16T09:11:21.739Z,22.20
2018-10-16T09:16:25.092Z,23.33
2018-10-16T09:21:28.250Z,21.20
2018-10-16T09:26:31.438Z,17.90
2018-10-16T09:31:37.056Z,19.70
2018-10-16T09:36:40.208Z,18.37
2018-10-16T09:41:43.385Z,16.45
2018-10-16T09:46:46.495Z,19.05
2018-10-16T09:51:49.680Z,14.50
2018-10-16T09:56:52.828Z,16.57
2018-10-16T10:01:56.305Z,14.90
2018-10-16T10:06:59.468Z,14.40
2018-10-16T10:12:02.627Z,13.13
2018-10-16T10:17:05.774Z,16.27
2018-10-16T10:22:08.903Z,14.43
2018-10-16T10:27:12.108Z,12.23
2018-10-16T10:32:15.197Z,11.45
2018-10-16T10:37:18.395Z,11.85
2018-10-16T10:42:21.721Z,12.80
2018-10-16T10:47:24.793Z,11.93
2018-10-16T10:52:27.959Z,14.35
2018-10-16T10:57:31.117Z,13.20
2018-10-16T11:02:34.352Z,16.27
2018-10-16T11:07:37.438Z,16.00
2018-10-16T11:12:41.307Z,14.58
2018-10-16T11:17:44.436Z,14.07
2018-10-16T11:22:47.597Z,12.58
2018-10-16T11:27:50.757Z,13.83
2018-10-16T11:32:53.883Z,11.50
2018-10-16T11:37:57.028Z,10.55
2018-10-16T11:43:00.203Z,12.98
2018-10-16T11:48:03.341Z,9.13
2018-10-16T11:53:06.550Z,10.03
2018-10-16T11:58:09.765Z,11.43
2018-10-16T12:03:12.942Z,10.45
2018-10-16T12:08:16.199Z,8.18
2018-10-16T12:13:19.298Z,7.97
2018-10-16T12:18:25.543Z,8.68
2018-10-16T12:23:28.636Z,9.15
2018-10-16T12:28:31.812Z,12.65
2018-10-16T12:33:35.024Z,10.72
2018-10-16T12:38:38.262Z,9.15
2018-10-16T12:43:41.505Z,9.18
2018-10-16T12:48:44.472Z,7.28
2018-10-16T12:53:47.675Z,7.00
2018-10-16T12:58:50.846Z,9.55
2018-10-16T13:03:54.064Z,11.18
2018-10-16T13:08:57.294Z,8.95
2018-10-16T13:14:00.428Z,7.25
2018-10-16T13:19:03.622Z,12.88
2018-10-16T13:24:06.840Z,8.28
2018-10-16T13:29:10.031Z,9.20
2018-10-16T13:34:13.162Z,5.37
2018-10-16T13:39:16.271Z,5.40
2018-10-16T13:44:19.412Z,6.87
2018-10-16T13:49:22.570Z,5.05
2018-10-16T13:54:25.665Z,6.37
2018-10-16T13:59:28.866Z,3.72
2018-10-16T14:04:32.032Z,4.37
2018-10-16T14:09:35.213Z,5.03
2018-10-16T14:14:38.355Z,4.15
2018-10-16T14:19:41.514Z,7.17
2018-10-16T14:24:44.732Z,4.60
2018-10-16T14:29:47.924Z,7.33
2018-10-16T14:34:51.152Z,6.90
2018-10-16T14:39:54.328Z,6.50
2018-10-16T14:44:57.501Z,8.03
2018-10-16T14:50:00.680Z,9.25
2018-10-16T14:55:04.160Z,6.17
2018-10-16T15:00:09.145Z,6.83
2018-10-16T15:05:12.602Z,7.45
2018-10-16T15:10:15.851Z,7.00
2018-10-16T15:15:19.018Z,6.87
2018-10-16T15:20:22.118Z,7.58
2018-10-16T15:25:25.276Z,6.47
2018-10-16T15:30:28.474Z,6.45
2018-10-16T15:35:31.674Z,7.33
2018-10-16T15:40:34.856Z,8.80
2018-10-16T15:45:37.983Z,7.90
2018-10-16T15:50:41.195Z,9.93
2018-10-16T15:55:44.291Z,8.95
2018-10-16T16:00:47.453Z,10.03
2018-10-16T16:05:50.610Z,6.58
2018-10-16T16:10:53.719Z,9.58
2018-10-16T16:15:56.895Z,8.88
2018-10-16T16:21:00.017Z,10.20
2018-10-16T16:26:03.243Z,9.98
2018-10-16T16:31:06.373Z,9.50
2018-10-16T16:36:09.551Z,10.98
2018-10-16T16:41:12.661Z,9.30
2018-10-16T16:46:15.802Z,10.85
2018-10-16T16:51:18.988Z,6.95
2018-10-16T16:56:22.055Z,6.53
2018-10-16T17:01:25.181Z,8.10
2018-10-16T17:06:29.239Z,11.00
2018-10-16T17:11:32.391Z,9.18
2018-10-16T17:16:35.681Z,9.00
2018-10-16T17:21:38.929Z,11.40
2018-10-16T17:26:42.168Z,10.03
2018-10-16T17:31:45.259Z,13.50
2018-10-16T17:36:48.375Z,10.93
2018-10-16T17:41:51.561Z,9.33
2018-10-16T17:46:54.715Z,9.88
2018-10-16T17:51:57.813Z,10.18
2018-10-16T17:57:01.005Z,10.45
2018-10-16T18:02:04.295Z,7.60
2018-10-16T18:07:07.493Z,11.30
2018-10-16T18:12:10.619Z,6.40
2018-10-16T18:17:13.840Z,6.62
2018-10-16T18:22:16.976Z,6.35
2018-10-16T18:27:20.170Z,10.90
2018-10-16T18:32:23.243Z,6.55
2018-10-16T18:37:26.413Z,7.78
2018-10-16T18:42:29.564Z,8.53
2018-10-16T18:47:32.748Z,11.87
2018-10-16T18:52:35.916Z,13.45
2018-10-16T18:57:39.134Z,17.27
2018-10-16T19:02:42.657Z,13.13
2018-10-16T19:07:45.728Z,8.90
2018-10-16T19:12:48.889Z,11.80
2018-10-16T19:17:52.047Z,8.67
2018-10-16T19:22:55.218Z,8.67
2018-10-16T19:27:58.375Z,9.97
2018-10-16T19:33:01.519Z,10.77
2018-10-16T19:38:04.959Z,15.47
2018-10-16T19:43:08.108Z,9.70
2018-10-16T19:48:11.274Z,10.03
2018-10-16T19:53:14.390Z,10.53
2018-10-16T19:58:17.561Z,10.35
2018-10-16T20:03:20.665Z,12.37
2018-10-16T20:08:23.825Z,16.50
2018-10-16T20:13:27.012Z,9.80
2018-10-16T20:18:30.721Z,9.70
2018-10-16T20:23:34.167Z,12.67
2018-10-16T20:28:37.686Z,13.83
2018-10-16T20:33:41.044Z,11.17
2018-10-16T20:38:44.234Z,10.97
2018-10-16T20:43:47.447Z,10.23
2018-10-16T20:48:50.711Z,10.57
2018-10-16T20:53:54.073Z,8.87
2018-10-16T20:58:57.190Z,10.50
2018-10-16T21:04:00.603Z,9.40
2018-10-16T21:09:04.615Z,8.83
2018-10-16T21:14:07.973Z,12.27
2018-10-16T21:19:11.423Z,11.40
2018-10-16T21:24:14.557Z,12.00
2018-10-16T21:29:17.684Z,11.73
2018-10-16T21:34:20.883Z,10.28
2018-10-16T21:39:24.230Z,9.90
2018-10-16T21:44:27.452Z,10.70
2018-10-16T21:49:30.621Z,11.73
2018-10-16T21:54:33.875Z,15.20
2018-10-16T21:59:37.075Z,13.00
2018-10-16T22:04:41.062Z,14.17
2018-10-16T22:09:44.218Z,8.80
2018-10-16T22:14:47.376Z,9.73
2018-10-16T22:19:50.568Z,12.00
2018-10-16T22:24:53.707Z,8.63
2018-10-16T22:29:56.855Z,9.15
2018-10-16T22:35:00.122Z,10.40
2018-10-16T22:40:03.227Z,9.53
2018-10-16T22:45:07.096Z,9.87
2018-10-16T22:50:12.051Z,10.53
2018-10-16T22:55:15.269Z,9.40
2018-10-16T23:00:19.441Z,11.67
2018-10-16T23:05:22.603Z,9.77
2018-10-16T23:10:25.789Z,10.40
2018-10-16T23:15:28.904Z,11.50
2018-10-16T23:20:32.652Z,10.23
2018-10-16T23:25:35.707Z,10.97
2018-10-16T23:30:38.861Z,9.33
2018-10-16T23:35:42.031Z,9.67
2018-10-16T23:40:45.207Z,11.27
2018-10-16T23:45:48.466Z,11.60
2018-10-16T23:50:51.612Z,10.77
2018-10-16T23:55:54.747Z,10.60
